createdAt,value
2023-10-13T02:41:24.205Z,100.00
2023-10-13T03:15:56.819Z,100.00
2023-10-13T03:19:20.938Z,100.00
2023-10-13T03:26:22.222Z,100.00
2023-10-13T03:29:25.635Z,100.00
2023-10-13T06:20:40.708Z,100.00
2023-10-13T06:27:55.085Z,100.00
2023-10-13T06:31:35.586Z,100.00
2023-10-13T06:38:11.353Z,100.00
2023-10-13T06:48:14.875Z,100.00
2023-10-13T06:59:17.940Z,100.00
2023-10-13T07:02:37.656Z,100.00
2023-10-13T07:06:13.123Z,100.00
2023-10-13T07:10:15.034Z,100.00
2023-10-13T07:22:27.466Z,100.00
2023-10-13T09:41:19.349Z,100.00
2023-10-13T09:44:37.504Z,100.00
2023-10-13T09:48:03.302Z,100.00
2023-10-13T09:51:15.206Z,100.00
2023-10-13T09:55:22.231Z,100.00
2023-10-13T09:59:06.978Z,100.00
2023-10-13T10:03:08.916Z,100.00
2023-10-13T10:11:28.347Z,100.00
2023-10-13T10:15:23.015Z,100.00
2023-10-13T10:18:29.837Z,100.00
2023-10-13T10:21:38.680Z,100.00
2023-10-13T10:25:08.968Z,100.00
2023-10-13T10:28:19.105Z,100.00
2023-10-13T10:31:52.059Z,100.00
2023-10-13T10:35:37.581Z,100.00
2023-10-13T10:39:10.196Z,100.00
2023-10-13T10:42:36.438Z,100.00
2023-10-13T10:55:49.980Z,94.98
2023-10-13T10:59:37.869Z,94.10
2023-10-13T11:03:23.431Z,95.49
2023-10-13T11:06:39.039Z,93.23
2023-10-13T11:10:53.726Z,92.08
2023-10-13T11:14:41.993Z,90.80
2023-10-13T11:18:09.213Z,90.80
2023-10-13T11:21:37.403Z,89.25
2023-10-13T11:24:57.115Z,87.51
2023-10-13T11:28:51.726Z,87.20
2023-10-13T11:35:49.048Z,87.57
2023-10-13T11:39:12.794Z,84.81
2023-10-13T11:46:59.755Z,83.37
2023-10-13T11:53:49.169Z,82.24
2023-10-13T11:56:52.631Z,82.10
2023-10-13T12:04:43.360Z,80.95
2023-10-13T12:08:45.093Z,79.75
2023-10-13T12:12:09.259Z,78.60
2023-10-13T15:11:50.276Z,73.15
2023-10-13T15:15:39.523Z,74.40
2023-10-13T15:19:06.432Z,76.05
2023-10-13T15:22:11.123Z,77.87
2023-10-13T15:25:35.992Z,79.49
2023-10-13T15:32:50.515Z,87.12
2023-10-13T15:36:17.061Z,89.13
2023-10-13T15:39:38.993Z,92.24
2023-10-13T15:43:11.860Z,93.96
2023-10-13T15:50:11.230Z,98.37
2023-10-13T15:53:31.270Z,100.00
2023-10-13T15:57:07.772Z,100.00
2023-10-13T16:00:27.607Z,100.00
2023-10-13T16:07:20.088Z,100.00
2023-10-13T16:10:46.285Z,100.00
2023-10-13T16:13:59.043Z,100.00
2023-10-13T16:17:20.741Z,100.00
2023-10-13T16:20:42.833Z,100.00
2023-10-13T16:28:13.626Z,100.00
2023-10-13T16:31:43.430Z,100.00
2023-10-13T16:35:02.183Z,100.00
2023-10-13T16:38:44.762Z,100.00
2023-10-13T16:42:49.953Z,100.00
2023-10-13T16:45:58.071Z,100.00
2023-10-13T16:49:52.678Z,100.00
2023-10-13T18:12:26.276Z,100.00
2023-10-13T18:15:42.362Z,100.00
2023-10-13T18:19:16.392Z,100.00
2023-10-13T18:22:58.376Z,100.00
2023-10-13T18:26:32.627Z,100.00
2023-10-13T18:30:25.135Z,100.00
2023-10-13T18:33:37.037Z,100.00
2023-10-13T18:37:06.367Z,100.00
2023-10-13T22:14:17.918Z,100.00
2023-10-13T22:17:37.821Z,100.00
2023-10-13T22:20:56.060Z,100.00
